sensor_id;sensor_type;location;lat;lon;timestamp;pressure;altitude;pressure_sealevel;temperature;humidity
77235;BME280;66253;50.526;14.974;2023-03-01T00:03:23;100383.98;;;-5.05;77.36
77235;BME280;66253;50.526;14.974;2023-03-01T00:07:13;100388.13;;;-5.06;77.76
77235;BME280;66253;50.526;14.974;2023-03-01T00:10:21;100387.13;;;-5.06;77.67
77235;BME280;66253;50.526;14.974;2023-03-01T00:12:53;100383.77;;;-5.06;77.92
77235;BME280;66253;50.526;14.974;2023-03-01T00:19:24;100380.11;;;-5.06;77.97
77235;BME280;66253;50.526;14.974;2023-03-01T00:23:19;100374.41;;;-5.08;78.18
77235;BME280;66253;50.526;14.974;2023-03-01T00:36:45;100370.14;;;-5.12;77.96
77235;BME280;66253;50.526;14.974;2023-03-01T01:04:32;100355.11;;;-5.26;78.59
77235;BME280;66253;50.526;14.974;2023-03-01T01:07:38;100352.54;;;-5.29;78.80
77235;BME280;66253;50.526;14.974;2023-03-01T01:11:26;100354.30;;;-5.32;78.57
77235;BME280;66253;50.526;14.974;2023-03-01T01:14:33;100359.88;;;-5.35;78.26
77235;BME280;66253;50.526;14.974;2023-03-01T01:28:55;100348.29;;;-5.46;78.43
77235;BME280;66253;50.526;14.974;2023-03-01T01:31:01;100339.89;;;-5.48;79.03
77235;BME280;66253;50.526;14.974;2023-03-01T01:37:06;100341.85;;;-5.49;78.75
77235;BME280;66253;50.526;14.974;2023-03-01T01:43:35;100337.81;;;-5.51;78.83
77235;BME280;66253;50.526;14.974;2023-03-01T01:46:25;100340.63;;;-5.51;78.83
77235;BME280;66253;50.526;14.974;2023-03-01T01:49:44;100341.11;;;-5.52;78.94
77235;BME280;66253;50.526;14.974;2023-03-01T02:19:09;100323.20;;;-5.62;78.90
77235;BME280;66253;50.526;14.974;2023-03-01T02:22:24;100321.48;;;-5.63;79.11
77235;BME280;66253;50.526;14.974;2023-03-01T02:35:13;100317.92;;;-5.73;78.84
77235;BME280;66253;50.526;14.974;2023-03-01T03:07:32;100297.81;;;-5.90;79.36
77235;BME280;66253;50.526;14.974;2023-03-01T03:25:10;100292.39;;;-5.95;79.73
77235;BME280;66253;50.526;14.974;2023-03-01T03:53:31;100260.61;;;-6.07;79.80
77235;BME280;66253;50.526;14.974;2023-03-01T04:04:11;100264.69;;;-6.10;79.67
77235;BME280;66253;50.526;14.974;2023-03-01T04:07:48;100267.11;;;-6.12;79.69
77235;BME280;66253;50.526;14.974;2023-03-01T04:11:37;100270.73;;;-6.14;79.89
77235;BME280;66253;50.526;14.974;2023-03-01T04:22:11;100262.94;;;-6.19;79.86
77235;BME280;66253;50.526;14.974;2023-03-01T04:35:25;100267.70;;;-6.26;79.56
77235;BME280;66253;50.526;14.974;2023-03-01T04:52:57;100271.45;;;-6.41;79.64
77235;BME280;66253;50.526;14.974;2023-03-01T05:11:23;100268.95;;;-6.52;79.73
77235;BME280;66253;50.526;14.974;2023-03-01T05:14:59;100273.83;;;-6.50;80.07
77235;BME280;66253;50.526;14.974;2023-03-01T05:18:21;100270.88;;;-6.49;80.40
77235;BME280;66253;50.526;14.974;2023-03-01T05:21:34;100271.61;;;-6.47;80.25
77235;BME280;66253;50.526;14.974;2023-03-01T05:42:21;100257.27;;;-6.31;80.30
77235;BME280;66253;50.526;14.974;2023-03-01T05:55:40;100281.98;;;-6.27;80.34
77235;BME280;66253;50.526;14.974;2023-03-01T06:01:53;100283.10;;;-6.23;80.43
77235;BME280;66253;50.526;14.974;2023-03-01T06:04:45;100289.33;;;-6.21;80.59
77235;BME280;66253;50.526;14.974;2023-03-01T06:07:32;100288.77;;;-6.17;80.28
77235;BME280;66253;50.526;14.974;2023-03-01T06:10:59;100290.42;;;-6.11;80.43
77235;BME280;66253;50.526;14.974;2023-03-01T06:14:34;100289.89;;;-6.07;80.74
77235;BME280;66253;50.526;14.974;2023-03-01T06:21:13;100288.60;;;-5.93;80.72
77235;BME280;66253;50.526;14.974;2023-03-01T06:24:08;100288.48;;;-5.84;80.59
77235;BME280;66253;50.526;14.974;2023-03-01T06:26:56;100285.86;;;-5.76;80.57
77235;BME280;66253;50.526;14.974;2023-03-01T06:48:57;100269.52;;;-4.54;79.67
77235;BME280;66253;50.526;14.974;2023-03-01T06:52:05;100272.19;;;-4.24;79.38
77235;BME280;66253;50.526;14.974;2023-03-01T06:54:30;100274.80;;;-4.01;79.36
77235;BME280;66253;50.526;14.974;2023-03-01T06:56:59;100281.70;;;-3.82;78.95
77235;BME280;66253;50.526;14.974;2023-03-01T06:59:56;100282.24;;;-3.61;78.50
77235;BME280;66253;50.526;14.974;2023-03-01T07:03:22;100285.30;;;-3.41;78.05
77235;BME280;66253;50.526;14.974;2023-03-01T07:09:45;100279.64;;;-2.66;77.45
77235;BME280;66253;50.526;14.974;2023-03-01T07:12:37;100278.66;;;-2.02;76.34
77235;BME280;66253;50.526;14.974;2023-03-01T07:18:46;100274.35;;;-0.45;74.44
77235;BME280;66253;50.526;14.974;2023-03-01T07:21:34;100273.14;;;0.25;72.17
77235;BME280;66253;50.526;14.974;2023-03-01T07:25:12;100268.67;;;1.39;70.44
77235;BME280;66253;50.526;14.974;2023-03-01T07:28:44;100256.70;;;2.84;67.71
77235;BME280;66253;50.526;14.974;2023-03-01T07:39:03;100240.16;;;4.38;63.09
77235;BME280;66253;50.526;14.974;2023-03-01T07:50:14;100239.59;;;5.17;59.88
77235;BME280;66253;50.526;14.974;2023-03-01T07:57:19;100220.88;;;8.04;54.75
77235;BME280;66253;50.526;14.974;2023-03-01T08:00:00;100220.27;;;8.95;52.63
77235;BME280;66253;50.526;14.974;2023-03-01T08:02:33;100219.16;;;9.66;51.94
77235;BME280;66253;50.526;14.974;2023-03-01T08:04:59;100218.56;;;10.42;50.41
77235;BME280;66253;50.526;14.974;2023-03-01T08:07:25;100215.98;;;11.09;49.23
77235;BME280;66253;50.526;14.974;2023-03-01T08:09:53;100212.33;;;11.70;47.72
77235;BME280;66253;50.526;14.974;2023-03-01T08:12:19;100203.77;;;12.16;46.62
77235;BME280;66253;50.526;14.974;2023-03-01T08:14:45;100200.34;;;12.63;43.75
77235;BME280;66253;50.526;14.974;2023-03-01T08:17:14;100197.14;;;12.72;39.74
77235;BME280;66253;50.526;14.974;2023-03-01T08:19:49;100199.20;;;12.79;40.04
77235;BME280;66253;50.526;14.974;2023-03-01T08:22:14;100197.67;;;12.82;40.22
77235;BME280;66253;50.526;14.974;2023-03-01T08:24:42;100191.51;;;13.13;40.62
77235;BME280;66253;50.526;14.974;2023-03-01T08:27:08;100186.30;;;13.58;40.62
77235;BME280;66253;50.526;14.974;2023-03-01T08:29:34;100186.95;;;13.97;38.36
77235;BME280;66253;50.526;14.974;2023-03-01T08:32:00;100187.20;;;14.26;37.20
77235;BME280;66253;50.526;14.974;2023-03-01T08:34:26;100180.77;;;14.43;37.11
77235;BME280;66253;50.526;14.974;2023-03-01T08:36:52;100173.58;;;14.73;37.16
77235;BME280;66253;50.526;14.974;2023-03-01T08:39:19;100170.05;;;15.13;37.26
77235;BME280;66253;50.526;14.974;2023-03-01T08:41:45;100160.40;;;15.56;36.36
77235;BME280;66253;50.526;14.974;2023-03-01T08:44:12;100158.55;;;15.94;35.48
77235;BME280;66253;50.526;14.974;2023-03-01T08:46:40;100154.39;;;16.30;34.93
77235;BME280;66253;50.526;14.974;2023-03-01T08:49:08;100147.63;;;16.46;32.56
77235;BME280;66253;50.526;14.974;2023-03-01T08:51:34;100150.84;;;16.55;32.94
77235;BME280;66253;50.526;14.974;2023-03-01T08:54:22;100144.98;;;16.76;32.89
77235;BME280;66253;50.526;14.974;2023-03-01T08:56:48;100135.11;;;17.07;32.07
77235;BME280;66253;50.526;14.974;2023-03-01T08:59:15;100135.09;;;17.08;30.99
77235;BME280;66253;50.526;14.974;2023-03-01T09:01:42;100133.87;;;17.21;31.73
77235;BME280;66253;50.526;14.974;2023-03-01T09:04:09;100130.67;;;17.37;30.13
77235;BME280;66253;50.526;14.974;2023-03-01T09:06:35;100128.53;;;17.23;29.67
77235;BME280;66253;50.526;14.974;2023-03-01T09:09:03;100128.33;;;17.03;30.72
77235;BME280;66253;50.526;14.974;2023-03-01T09:11:28;100128.81;;;16.65;30.36
77235;BME280;66253;50.526;14.974;2023-03-01T09:13:54;100133.14;;;15.82;30.75
77235;BME280;66253;50.526;14.974;2023-03-01T09:16:21;100132.92;;;14.62;30.95
77235;BME280;66253;50.526;14.974;2023-03-01T09:18:52;100136.07;;;13.56;32.31
77235;BME280;66253;50.526;14.974;2023-03-01T09:21:20;100136.63;;;12.51;33.06
77235;BME280;66253;50.526;14.974;2023-03-01T09:23:48;100135.55;;;11.54;34.21
77235;BME280;66253;50.526;14.974;2023-03-01T09:26:19;100137.00;;;10.69;34.68
77235;BME280;66253;50.526;14.974;2023-03-01T09:28:48;100130.89;;;9.77;35.21
77235;BME280;66253;50.526;14.974;2023-03-01T09:31:21;100130.73;;;9.02;36.84
77235;BME280;66253;50.526;14.974;2023-03-01T09:33:50;100128.44;;;8.38;37.82
77235;BME280;66253;50.526;14.974;2023-03-01T09:36:19;100129.69;;;7.86;39.17
77235;BME280;66253;50.526;14.974;2023-03-01T09:38:47;100131.96;;;7.38;40.07
77235;BME280;66253;50.526;14.974;2023-03-01T09:41:44;100133.55;;;6.99;41.52
77235;BME280;66253;50.526;14.974;2023-03-01T09:44:22;100132.67;;;6.59;42.32
77235;BME280;66253;50.526;14.974;2023-03-01T09:46:58;100130.83;;;6.31;43.09
77235;BME280;66253;50.526;14.974;2023-03-01T09:52:42;100126.23;;;5.86;43.92
77235;BME280;66253;50.526;14.974;2023-03-01T09:55:14;100122.08;;;5.67;44.16
77235;BME280;66253;50.526;14.974;2023-03-01T09:57:55;100120.71;;;5.51;44.64
77235;BME280;66253;50.526;14.974;2023-03-01T10:00:39;100123.54;;;5.37;45.37
77235;BME280;66253;50.526;14.974;2023-03-01T10:11:27;100122.64;;;4.76;45.99
77235;BME280;66253;50.526;14.974;2023-03-01T10:16:58;100123.10;;;4.59;47.72
77235;BME280;66253;50.526;14.974;2023-03-01T10:20:14;100123.52;;;4.65;47.70
77235;BME280;66253;50.526;14.974;2023-03-01T10:22:48;100121.85;;;4.73;47.98
77235;BME280;66253;50.526;14.974;2023-03-01T10:25:31;100120.90;;;4.80;47.73
77235;BME280;66253;50.526;14.974;2023-03-01T10:30:50;100115.88;;;4.86;47.45
77235;BME280;66253;50.526;14.974;2023-03-01T10:33:28;100116.90;;;4.94;47.55
77235;BME280;66253;50.526;14.974;2023-03-01T10:36:25;100109.11;;;5.04;47.47
77235;BME280;66253;50.526;14.974;2023-03-01T10:38:56;100106.31;;;5.08;47.42
77235;BME280;66253;50.526;14.974;2023-03-01T10:41:25;100099.14;;;5.12;46.96
77235;BME280;66253;50.526;14.974;2023-03-01T10:44:00;100096.66;;;5.17;46.70
77235;BME280;66253;50.526;14.974;2023-03-01T10:46:31;100091.80;;;5.14;45.09
77235;BME280;66253;50.526;14.974;2023-03-01T10:49:20;100093.36;;;5.12;45.29
77235;BME280;66253;50.526;14.974;2023-03-01T10:52:23;100086.26;;;5.12;45.69
77235;BME280;66253;50.526;14.974;2023-03-01T10:58:19;100081.42;;;5.17;45.29
77235;BME280;66253;50.526;14.974;2023-03-01T11:00:51;100076.25;;;5.22;45.28
77235;BME280;66253;50.526;14.974;2023-03-01T11:03:23;100077.64;;;5.28;45.62
77235;BME280;66253;50.526;14.974;2023-03-01T11:05:59;100070.09;;;5.33;44.84
77235;BME280;66253;50.526;14.974;2023-03-01T11:08:34;100062.21;;;5.37;45.57
77235;BME280;66253;50.526;14.974;2023-03-01T11:13:35;100058.08;;;5.63;46.13
77235;BME280;66253;50.526;14.974;2023-03-01T11:16:03;100055.88;;;5.72;45.21
77235;BME280;66253;50.526;14.974;2023-03-01T11:18:31;100050.80;;;5.78;45.39
77235;BME280;66253;50.526;14.974;2023-03-01T11:20:59;100049.11;;;5.86;45.43
77235;BME280;66253;50.526;14.974;2023-03-01T11:23:28;100051.94;;;5.96;45.81
77235;BME280;66253;50.526;14.974;2023-03-01T11:25:56;100051.71;;;6.06;45.92
77235;BME280;66253;50.526;14.974;2023-03-01T11:28:23;100050.14;;;6.14;45.50
77235;BME280;66253;50.526;14.974;2023-03-01T11:30:56;100045.65;;;6.25;45.67
77235;BME280;66253;50.526;14.974;2023-03-01T11:36:08;100041.08;;;6.45;45.03
77235;BME280;66253;50.526;14.974;2023-03-01T11:38:41;100037.70;;;6.50;45.00
77235;BME280;66253;50.526;14.974;2023-03-01T11:41:14;100037.74;;;6.55;44.23
77235;BME280;66253;50.526;14.974;2023-03-01T11:43:58;100031.65;;;6.55;44.06
77235;BME280;66253;50.526;14.974;2023-03-01T11:46:43;100028.16;;;6.58;44.34
77235;BME280;66253;50.526;14.974;2023-03-01T11:54:27;100009.40;;;6.55;43.68
77235;BME280;66253;50.526;14.974;2023-03-01T11:59:53;100001.60;;;6.61;44.55
77235;BME280;66253;50.526;14.974;2023-03-01T12:02:53;100004.09;;;6.69;44.17
77235;BME280;66253;50.526;14.974;2023-03-01T12:05:46;100001.06;;;6.74;43.74
77235;BME280;66253;50.526;14.974;2023-03-01T12:08:23;100001.90;;;6.81;43.80
77235;BME280;66253;50.526;14.974;2023-03-01T12:16:38;99991.81;;;6.90;43.03
77235;BME280;66253;50.526;14.974;2023-03-01T12:27:49;99987.70;;;7.03;42.71
77235;BME280;66253;50.526;14.974;2023-03-01T12:33:50;99985.26;;;7.11;43.29
77235;BME280;66253;50.526;14.974;2023-03-01T12:50:44;99964.71;;;7.17;42.98
77235;BME280;66253;50.526;14.974;2023-03-01T12:53:23;99966.52;;;7.18;42.65
77235;BME280;66253;50.526;14.974;2023-03-01T12:55:56;99960.67;;;7.15;42.37
77235;BME280;66253;50.526;14.974;2023-03-01T12:58:28;99955.30;;;7.13;42.62
77235;BME280;66253;50.526;14.974;2023-03-01T13:17:57;99939.27;;;7.09;42.66
77235;BME280;66253;50.526;14.974;2023-03-01T13:26:04;99938.00;;;7.06;43.05
77235;BME280;66253;50.526;14.974;2023-03-01T13:30:58;99934.56;;;7.13;42.80
77235;BME280;66253;50.526;14.974;2023-03-01T13:36:02;99926.30;;;7.17;43.11
77235;BME280;66253;50.526;14.974;2023-03-01T13:38:56;99923.23;;;7.17;42.82
77235;BME280;66253;50.526;14.974;2023-03-01T13:41:59;99920.22;;;7.16;42.45
77235;BME280;66253;50.526;14.974;2023-03-01T13:44:38;99915.04;;;7.13;42.51
77235;BME280;66253;50.526;14.974;2023-03-01T13:47:13;99915.96;;;7.16;42.76
77235;BME280;66253;50.526;14.974;2023-03-01T13:49:56;99908.08;;;7.18;42.99
77235;BME280;66253;50.526;14.974;2023-03-01T13:52:34;99904.21;;;7.17;42.92
77235;BME280;66253;50.526;14.974;2023-03-01T13:55:06;99899.07;;;7.18;43.03
77235;BME280;66253;50.526;14.974;2023-03-01T13:57:46;99895.70;;;7.22;43.28
77235;BME280;66253;50.526;14.974;2023-03-01T14:00:30;99895.45;;;7.25;43.35
77235;BME280;66253;50.526;14.974;2023-03-01T14:03:19;99894.98;;;7.30;43.17
77235;BME280;66253;50.526;14.974;2023-03-01T14:06:45;99889.64;;;7.32;42.88
77235;BME280;66253;50.526;14.974;2023-03-01T14:09:22;99886.31;;;7.35;43.11
77235;BME280;66253;50.526;14.974;2023-03-01T14:15:19;99887.40;;;7.38;42.57
77235;BME280;66253;50.526;14.974;2023-03-01T14:22:47;99891.06;;;7.35;42.27
77235;BME280;66253;50.526;14.974;2023-03-01T14:25:33;99890.89;;;7.36;42.51
77235;BME280;66253;50.526;14.974;2023-03-01T14:28:04;99891.88;;;7.36;42.42
77235;BME280;66253;50.526;14.974;2023-03-01T14:30:31;99890.83;;;7.37;42.81
77235;BME280;66253;50.526;14.974;2023-03-01T14:33:01;99890.26;;;7.40;42.96
77235;BME280;66253;50.526;14.974;2023-03-01T14:35:30;99886.36;;;7.39;43.02
77235;BME280;66253;50.526;14.974;2023-03-01T14:37:56;99884.65;;;7.39;43.31
77235;BME280;66253;50.526;14.974;2023-03-01T14:40:26;99879.04;;;7.39;42.92
77235;BME280;66253;50.526;14.974;2023-03-01T14:42:53;99875.16;;;7.39;43.05
77235;BME280;66253;50.526;14.974;2023-03-01T14:45:20;99875.34;;;7.38;43.31
77235;BME280;66253;50.526;14.974;2023-03-01T14:47:47;99869.94;;;7.37;43.28
77235;BME280;66253;50.526;14.974;2023-03-01T14:50:30;99866.90;;;7.36;43.44
77235;BME280;66253;50.526;14.974;2023-03-01T14:53:01;99866.59;;;7.36;42.94
77235;BME280;66253;50.526;14.974;2023-03-01T14:55:34;99863.73;;;7.34;42.74
77235;BME280;66253;50.526;14.974;2023-03-01T14:58:04;99861.76;;;7.33;42.34
77235;BME280;66253;50.526;14.974;2023-03-01T15:00:32;99856.39;;;7.30;42.55
77235;BME280;66253;50.526;14.974;2023-03-01T15:03:35;99853.05;;;7.28;42.56
77235;BME280;66253;50.526;14.974;2023-03-01T15:06:03;99852.66;;;7.24;42.28
77235;BME280;66253;50.526;14.974;2023-03-01T15:08:50;99857.84;;;7.22;42.51
77235;BME280;66253;50.526;14.974;2023-03-01T15:11:23;99852.66;;;7.19;42.56
77235;BME280;66253;50.526;14.974;2023-03-01T15:13:50;99852.09;;;7.16;42.56
77235;BME280;66253;50.526;14.974;2023-03-01T15:16:39;99852.03;;;7.13;42.64
77235;BME280;66253;50.526;14.974;2023-03-01T15:19:28;99851.25;;;7.10;42.73
77235;BME280;66253;50.526;14.974;2023-03-01T15:21:55;99847.55;;;7.03;42.57
77235;BME280;66253;50.526;14.974;2023-03-01T15:24:25;99846.75;;;6.96;42.56
77235;BME280;66253;50.526;14.974;2023-03-01T15:26:55;99848.33;;;6.89;42.31
77235;BME280;66253;50.526;14.974;2023-03-01T15:29:26;99851.23;;;6.82;43.09
77235;BME280;66253;50.526;14.974;2023-03-01T15:32:03;99854.55;;;6.75;43.69
77235;BME280;66253;50.526;14.974;2023-03-01T15:34:37;99860.24;;;6.71;43.94
77235;BME280;66253;50.526;14.974;2023-03-01T15:37:06;99864.98;;;6.67;44.28
77235;BME280;66253;50.526;14.974;2023-03-01T15:39:54;99871.08;;;6.61;44.65
77235;BME280;66253;50.526;14.974;2023-03-01T15:47:34;99872.40;;;6.45;45.50
77235;BME280;66253;50.526;14.974;2023-03-01T15:50:01;99874.59;;;6.39;45.55
77235;BME280;66253;50.526;14.974;2023-03-01T15:52:38;99874.98;;;6.31;45.54
77235;BME280;66253;50.526;14.974;2023-03-01T15:57:42;99883.86;;;6.17;46.28
77235;BME280;66253;50.526;14.974;2023-03-01T16:00:11;99885.77;;;6.08;46.37
77235;BME280;66253;50.526;14.974;2023-03-01T16:02:42;99886.41;;;5.98;46.32
77235;BME280;66253;50.526;14.974;2023-03-01T16:05:23;99886.27;;;5.89;46.37
77235;BME280;66253;50.526;14.974;2023-03-01T16:07:50;99885.65;;;5.80;46.62
77235;BME280;66253;50.526;14.974;2023-03-01T16:10:16;99882.45;;;5.72;47.16
77235;BME280;66253;50.526;14.974;2023-03-01T16:12:42;99882.16;;;5.64;47.39
77235;BME280;66253;50.526;14.974;2023-03-01T16:15:20;99881.38;;;5.55;47.64
77235;BME280;66253;50.526;14.974;2023-03-01T16:17:47;99876.89;;;5.44;47.80
77235;BME280;66253;50.526;14.974;2023-03-01T16:20:13;99878.80;;;5.35;48.14
77235;BME280;66253;50.526;14.974;2023-03-01T16:22:44;99875.30;;;5.25;48.40
77235;BME280;66253;50.526;14.974;2023-03-01T16:25:13;99880.28;;;5.15;48.53
77235;BME280;66253;50.526;14.974;2023-03-01T16:27:48;99882.52;;;5.06;49.58
77235;BME280;66253;50.526;14.974;2023-03-01T16:30:16;99888.71;;;4.94;49.49
77235;BME280;66253;50.526;14.974;2023-03-01T16:32:44;99883.75;;;4.82;49.68
77235;BME280;66253;50.526;14.974;2023-03-01T16:35:12;99887.85;;;4.71;50.05
77235;BME280;66253;50.526;14.974;2023-03-01T16:37:38;99889.29;;;4.60;50.57
77235;BME280;66253;50.526;14.974;2023-03-01T16:40:17;99888.03;;;4.47;51.31
77235;BME280;66253;50.526;14.974;2023-03-01T16:42:43;99887.77;;;4.34;52.16
77235;BME280;66253;50.526;14.974;2023-03-01T16:45:09;99890.23;;;4.21;52.62
77235;BME280;66253;50.526;14.974;2023-03-01T16:47:35;99896.56;;;4.08;53.11
77235;BME280;66253;50.526;14.974;2023-03-01T16:50:04;99899.19;;;3.94;53.14
77235;BME280;66253;50.526;14.974;2023-03-01T16:52:33;99900.44;;;3.80;53.55
77235;BME280;66253;50.526;14.974;2023-03-01T16:55:05;99900.84;;;3.66;53.54
77235;BME280;66253;50.526;14.974;2023-03-01T16:57:34;99899.90;;;3.52;54.04
77235;BME280;66253;50.526;14.974;2023-03-01T16:59:59;99903.13;;;3.39;54.32
77235;BME280;66253;50.526;14.974;2023-03-01T17:02:25;99904.02;;;3.25;54.31
77235;BME280;66253;50.526;14.974;2023-03-01T17:04:55;99900.98;;;3.14;54.62
77235;BME280;66253;50.526;14.974;2023-03-01T17:07:22;99901.50;;;3.01;55.26
77235;BME280;66253;50.526;14.974;2023-03-01T17:09:48;99905.22;;;2.89;55.68
77235;BME280;66253;50.526;14.974;2023-03-01T17:12:15;99905.38;;;2.77;56.18
77235;BME280;66253;50.526;14.974;2023-03-01T17:14:41;99908.23;;;2.64;56.54
77235;BME280;66253;50.526;14.974;2023-03-01T17:17:08;99912.44;;;2.51;56.93
77235;BME280;66253;50.526;14.974;2023-03-01T17:19:48;99916.13;;;2.39;57.27
77235;BME280;66253;50.526;14.974;2023-03-01T17:22:39;99922.02;;;2.24;57.59
77235;BME280;66253;50.526;14.974;2023-03-01T17:25:42;99930.29;;;2.08;58.15
77235;BME280;66253;50.526;14.974;2023-03-01T17:28:13;99937.33;;;1.95;58.80
77235;BME280;66253;50.526;14.974;2023-03-01T17:31:03;99942.14;;;1.82;59.33
77235;BME280;66253;50.526;14.974;2023-03-01T17:37:02;99945.75;;;1.53;60.16
77235;BME280;66253;50.526;14.974;2023-03-01T17:39:36;99947.17;;;1.41;60.42
77235;BME280;66253;50.526;14.974;2023-03-01T17:45:20;99934.04;;;1.18;61.26
77235;BME280;66253;50.526;14.974;2023-03-01T17:48:22;99927.39;;;1.05;61.49
77235;BME280;66253;50.526;14.974;2023-03-01T17:50:52;99931.65;;;0.93;61.80
77235;BME280;66253;50.526;14.974;2023-03-01T17:53:18;99927.00;;;0.84;62.04
77235;BME280;66253;50.526;14.974;2023-03-01T17:56:00;99926.87;;;0.74;62.43
77235;BME280;66253;50.526;14.974;2023-03-01T17:58:29;99925.58;;;0.64;62.81
77235;BME280;66253;50.526;14.974;2023-03-01T18:01:27;99927.12;;;0.55;63.00
77235;BME280;66253;50.526;14.974;2023-03-01T18:03:56;99920.78;;;0.41;63.27
77235;BME280;66253;50.526;14.974;2023-03-01T18:06:24;99926.02;;;0.34;63.41
77235;BME280;66253;50.526;14.974;2023-03-01T18:08:56;99924.88;;;0.25;63.78
77235;BME280;66253;50.526;14.974;2023-03-01T18:11:23;99924.72;;;0.16;63.86
77235;BME280;66253;50.526;14.974;2023-03-01T18:13:50;99924.39;;;0.09;64.20
77235;BME280;66253;50.526;14.974;2023-03-01T18:16:18;99925.77;;;0.01;64.55
77235;BME280;66253;50.526;14.974;2023-03-01T18:18:51;99922.25;;;-0.08;64.62
77235;BME280;66253;50.526;14.974;2023-03-01T18:35:51;99912.52;;;-0.57;66.05
77235;BME280;66253;50.526;14.974;2023-03-01T18:49:18;99919.90;;;-0.83;67.15
77235;BME280;66253;50.526;14.974;2023-03-01T18:53:17;99923.57;;;-0.89;67.37
77235;BME280;66253;50.526;14.974;2023-03-01T18:59:47;99928.41;;;-1.03;67.92
77235;BME280;66253;50.526;14.974;2023-03-01T19:02:16;99925.70;;;-1.10;68.10
77235;BME280;66253;50.526;14.974;2023-03-01T19:05:01;99924.19;;;-1.15;68.24
77235;BME280;66253;50.526;14.974;2023-03-01T19:08:20;99921.15;;;-1.19;68.25
77235;BME280;66253;50.526;14.974;2023-03-01T19:14:58;99927.15;;;-1.31;68.74
77235;BME280;66253;50.526;14.974;2023-03-01T19:21:14;99926.77;;;-1.41;69.32
77235;BME280;66253;50.526;14.974;2023-03-01T19:23:46;99926.76;;;-1.45;69.60
77235;BME280;66253;50.526;14.974;2023-03-01T19:26:22;99925.23;;;-1.49;69.89
77235;BME280;66253;50.526;14.974;2023-03-01T19:33:26;99931.75;;;-1.54;70.11
77235;BME280;66253;50.526;14.974;2023-03-01T19:36:30;99921.02;;;-1.56;70.46
77235;BME280;66253;50.526;14.974;2023-03-01T19:47:31;99925.50;;;-1.62;71.01
77235;BME280;66253;50.526;14.974;2023-03-01T19:50:54;99921.32;;;-1.64;71.29
77235;BME280;66253;50.526;14.974;2023-03-01T19:54:01;99921.81;;;-1.66;71.49
77235;BME280;66253;50.526;14.974;2023-03-01T19:57:01;99918.29;;;-1.67;71.51
77235;BME280;66253;50.526;14.974;2023-03-01T19:59:50;99918.11;;;-1.68;71.66
77235;BME280;66253;50.526;14.974;2023-03-01T20:17:56;99915.88;;;-1.81;72.20
77235;BME280;66253;50.526;14.974;2023-03-01T20:31:07;99919.66;;;-1.92;72.80
77235;BME280;66253;50.526;14.974;2023-03-01T20:34:05;99921.50;;;-1.95;73.00
77235;BME280;66253;50.526;14.974;2023-03-01T20:36:38;99916.44;;;-1.98;72.93
77235;BME280;66253;50.526;14.974;2023-03-01T20:43:15;99913.73;;;-2.04;72.84
77235;BME280;66253;50.526;14.974;2023-03-01T20:46:05;99915.55;;;-2.06;73.17
77235;BME280;66253;50.526;14.974;2023-03-01T20:49:18;99914.02;;;-2.09;73.02
77235;BME280;66253;50.526;14.974;2023-03-01T20:55:31;99925.38;;;-2.15;73.66
77235;BME280;66253;50.526;14.974;2023-03-01T20:58:38;99927.04;;;-2.17;73.84
77235;BME280;66253;50.526;14.974;2023-03-01T21:01:39;99933.70;;;-2.19;73.88
77235;BME280;66253;50.526;14.974;2023-03-01T21:04:08;99932.35;;;-2.21;73.84
77235;BME280;66253;50.526;14.974;2023-03-01T21:07:48;99938.36;;;-2.23;73.92
77235;BME280;66253;50.526;14.974;2023-03-01T21:15:00;99936.66;;;-2.28;74.23
77235;BME280;66253;50.526;14.974;2023-03-01T21:20:41;99932.45;;;-2.31;74.15
77235;BME280;66253;50.526;14.974;2023-03-01T21:23:10;99929.77;;;-2.33;74.35
77235;BME280;66253;50.526;14.974;2023-03-01T21:41:21;99943.22;;;-2.45;74.67
77235;BME280;66253;50.526;14.974;2023-03-01T21:45:05;99942.02;;;-2.47;74.53
77235;BME280;66253;50.526;14.974;2023-03-01T21:51:07;99944.65;;;-2.53;74.52
77235;BME280;66253;50.526;14.974;2023-03-01T21:54:24;99944.45;;;-2.56;75.02
77235;BME280;66253;50.526;14.974;2023-03-01T21:57:13;99941.07;;;-2.60;74.71
77235;BME280;66253;50.526;14.974;2023-03-01T21:59:59;99940.55;;;-2.64;74.82
77235;BME280;66253;50.526;14.974;2023-03-01T22:02:33;99941.83;;;-2.69;74.80
77235;BME280;66253;50.526;14.974;2023-03-01T22:16:07;99943.84;;;-2.88;74.96
77235;BME280;66253;50.526;14.974;2023-03-01T22:37:37;99935.20;;;-3.13;75.83
77235;BME280;66253;50.526;14.974;2023-03-01T22:40:34;99928.66;;;-3.16;75.99
77235;BME280;66253;50.526;14.974;2023-03-01T22:51:01;99928.23;;;-3.24;76.27
77235;BME280;66253;50.526;14.974;2023-03-01T22:58:16;99933.35;;;-3.30;76.78
77235;BME280;66253;50.526;14.974;2023-03-01T23:01:28;99936.98;;;-3.33;76.87
77235;BME280;66253;50.526;14.974;2023-03-01T23:05:01;99934.95;;;-3.36;76.83
77235;BME280;66253;50.526;14.974;2023-03-01T23:07:51;99934.41;;;-3.39;76.34
77235;BME280;66253;50.526;14.974;2023-03-01T23:15:08;99941.48;;;-3.47;76.21
77235;BME280;66253;50.526;14.974;2023-03-01T23:28:35;99926.36;;;-3.68;76.48
77235;BME280;66253;50.526;14.974;2023-03-01T23:31:55;99929.15;;;-3.72;76.37
77235;BME280;66253;50.526;14.974;2023-03-01T23:34:48;99933.29;;;-3.75;76.63
77235;BME280;66253;50.526;14.974;2023-03-01T23:55:27;99922.40;;;-3.90;76.98
77235;BME280;66253;50.526;14.974;2023-03-01T23:58:10;99916.01;;;-3.94;76.74
